createdAt,value
2018-04-12T00:00:33.344Z,46.43
2018-04-12T00:03:00.888Z,44.20
2018-04-12T00:05:28.483Z,47.20
2018-04-12T00:07:56.028Z,55.80
2018-04-12T00:10:23.594Z,60.83
2018-04-12T00:12:51.135Z,50.80
2018-04-12T00:15:18.702Z,49.00
2018-04-12T00:17:46.239Z,50.20
2018-04-12T00:20:13.991Z,43.70
2018-04-12T00:22:41.528Z,45.20
2018-04-12T00:25:09.930Z,46.83
2018-04-12T00:27:37.457Z,46.00
2018-04-12T00:30:05.061Z,48.33
2018-04-12T00:32:32.604Z,44.13
2018-04-12T00:35:00.952Z,47.67
2018-04-12T00:37:28.498Z,42.53
2018-04-12T00:39:56.063Z,43.53
2018-04-12T00:42:23.611Z,44.73
2018-04-12T00:44:51.183Z,44.40
2018-04-12T00:47:18.906Z,40.60
2018-04-12T00:49:46.483Z,53.67
2018-04-12T00:52:14.024Z,43.60
2018-04-12T00:54:41.592Z,48.93
2018-04-12T00:57:09.124Z,44.73
2018-04-12T00:59:36.709Z,48.63
2018-04-12T01:02:04.243Z,47.83
2018-04-12T01:04:31.812Z,45.50
2018-04-12T01:06:59.359Z,45.60
2018-04-12T01:09:27.065Z,43.30
2018-04-12T01:11:54.608Z,43.13
2018-04-12T01:14:22.179Z,45.07
2018-04-12T01:16:49.751Z,40.57
2018-04-12T01:19:17.348Z,43.37
2018-04-12T01:21:45.672Z,51.73
2018-04-12T01:24:13.201Z,50.47
2018-04-12T01:26:40.767Z,43.80
2018-04-12T01:29:08.311Z,39.03
2018-04-12T01:31:35.862Z,37.17
2018-04-12T01:34:04.167Z,52.43
2018-04-12T01:36:31.742Z,37.47
2018-04-12T01:38:59.388Z,40.60
2018-04-12T01:41:26.923Z,35.80
2018-04-12T01:43:55.260Z,33.10
2018-04-12T01:46:22.797Z,33.43
2018-04-12T01:48:50.372Z,35.77
2018-04-12T01:51:18.064Z,31.17
2018-04-12T01:53:45.638Z,40.73
2018-04-12T01:56:13.960Z,33.80
2018-04-12T01:58:41.527Z,33.80
2018-04-12T02:01:09.063Z,29.70
2018-04-12T02:03:36.623Z,29.70
2018-04-12T02:06:04.177Z,24.40
2018-04-12T02:08:31.741Z,25.03
2018-04-12T02:10:59.275Z,31.97
2018-04-12T02:13:27.602Z,33.67
2018-04-12T02:15:55.148Z,27.33
2018-04-12T02:18:22.708Z,33.60
2018-04-12T02:20:50.257Z,22.03
2018-04-12T02:23:17.967Z,24.63
2018-04-12T02:25:45.505Z,21.83
2018-04-12T02:28:13.077Z,23.30
2018-04-12T02:30:40.617Z,30.27
2018-04-12T02:33:08.388Z,23.87
2018-04-12T02:35:35.926Z,24.37
2018-04-12T02:38:03.467Z,24.67
2018-04-12T02:40:31.047Z,26.83
2018-04-12T02:42:58.768Z,26.27
2018-04-12T02:45:26.359Z,24.27
2018-04-12T02:47:53.902Z,29.73
2018-04-12T02:50:21.468Z,31.90
2018-04-12T02:52:49.785Z,24.80
2018-04-12T02:55:17.336Z,25.57
2018-04-12T02:57:44.899Z,19.93
2018-04-12T03:00:12.455Z,22.70
2018-04-12T03:02:40.008Z,21.33
2018-04-12T03:05:07.578Z,29.90
2018-04-12T03:07:35.159Z,19.00
2018-04-12T03:10:02.710Z,28.87
2018-04-12T03:12:30.284Z,28.00
2018-04-12T03:14:57.832Z,25.20
2018-04-12T03:17:25.408Z,24.70
2018-04-12T03:19:52.959Z,23.90
2018-04-12T03:22:20.521Z,23.67
2018-04-12T03:24:49.556Z,20.93
2018-04-12T03:27:17.247Z,27.77
2018-04-12T03:29:44.783Z,28.00
2018-04-12T03:32:12.344Z,23.07
2018-04-12T03:34:39.903Z,20.10
2018-04-12T03:37:07.474Z,25.17
2018-04-12T03:39:35.031Z,22.83
2018-04-12T03:42:02.597Z,32.43
2018-04-12T03:44:30.131Z,28.60
2018-04-12T03:46:57.697Z,27.13
2018-04-12T03:49:26.191Z,34.97
2018-04-12T03:51:53.738Z,27.50
2018-04-12T03:54:21.321Z,32.60
2018-04-12T03:56:48.911Z,28.70
2018-04-12T03:59:16.471Z,28.73
2018-04-12T04:01:44.293Z,25.77
2018-04-12T04:04:11.791Z,26.33
2018-04-12T04:06:39.392Z,29.90
2018-04-12T04:09:06.968Z,28.83
2018-04-12T04:11:34.511Z,30.80
2018-04-12T04:14:03.121Z,33.13
2018-04-12T04:16:42.476Z,26.60
2018-04-12T04:19:21.859Z,31.53
2018-04-12T04:21:50.155Z,28.67
2018-04-12T04:24:17.716Z,32.63
2018-04-12T04:26:45.255Z,29.10
2018-04-12T04:29:13.592Z,32.30
2018-04-12T04:31:41.329Z,39.30
2018-04-12T04:34:08.900Z,35.10
2018-04-12T04:36:36.435Z,37.03
2018-04-12T04:39:04.116Z,34.77
2018-04-12T04:41:32.488Z,33.23
2018-04-12T04:44:00.058Z,32.97
2018-04-12T04:46:27.603Z,38.77
2018-04-12T04:48:55.180Z,30.33
2018-04-12T04:51:22.725Z,33.17
2018-04-12T04:53:50.293Z,57.60
2018-04-12T04:56:17.882Z,45.93
2018-04-12T04:58:45.428Z,40.20
2018-04-12T05:01:13.132Z,41.87
2018-04-12T05:03:41.443Z,36.13
2018-04-12T05:06:09.151Z,49.17
2018-04-12T05:08:36.701Z,61.70
2018-04-12T05:11:04.292Z,44.73
2018-04-12T05:13:31.851Z,31.83
2018-04-12T05:16:00.166Z,39.83
2018-04-12T05:18:27.708Z,33.77
2018-04-12T05:20:55.285Z,46.40
2018-04-12T05:23:22.844Z,32.83
2018-04-12T05:25:50.370Z,31.63
2018-04-12T05:28:18.694Z,38.77
2018-04-12T05:30:46.235Z,31.73
2018-04-12T05:33:13.889Z,40.20
2018-04-12T05:35:41.484Z,43.10
2018-04-12T05:38:09.059Z,47.90
2018-04-12T05:40:36.611Z,34.20
2018-04-12T05:43:04.167Z,39.23
2018-04-12T05:45:31.715Z,39.43
2018-04-12T05:47:59.282Z,30.83
2018-04-12T05:50:26.827Z,33.53
2018-04-12T05:52:54.462Z,30.50
2018-04-12T05:55:21.996Z,26.87
2018-04-12T05:57:49.536Z,29.73
2018-04-12T06:00:17.101Z,38.97
2018-04-12T06:02:46.148Z,24.63
2018-04-12T06:05:13.690Z,25.17
2018-04-12T06:07:41.248Z,26.47
2018-04-12T06:10:08.819Z,34.63
2018-04-12T06:12:36.347Z,31.13
2018-04-12T06:15:04.735Z,33.93
2018-04-12T06:17:32.268Z,24.67
2018-04-12T06:19:59.843Z,25.17
2018-04-12T06:22:27.397Z,23.83
2018-04-12T06:24:55.003Z,20.27
2018-04-12T06:27:22.585Z,22.90
2018-04-12T06:29:50.156Z,21.57
2018-04-12T06:32:18.603Z,19.57
2018-04-12T06:34:46.171Z,14.47
2018-04-12T06:37:13.732Z,16.00
2018-04-12T06:39:41.381Z,13.03
2018-04-12T06:42:08.924Z,15.77
2018-04-12T06:44:38.276Z,17.30
2018-04-12T06:47:05.808Z,25.03
2018-04-12T06:49:33.387Z,20.90
2018-04-12T06:52:00.931Z,13.77
2018-04-12T06:54:28.511Z,20.47
2018-04-12T06:56:56.064Z,18.53
2018-04-12T06:59:23.663Z,11.87
2018-04-12T07:01:51.205Z,14.73
2018-04-12T07:04:18.777Z,15.90
2018-04-12T07:06:46.343Z,19.53
2018-04-12T07:09:14.821Z,30.13
2018-04-12T07:11:43.219Z,19.03
2018-04-12T07:14:10.763Z,35.13
2018-04-12T07:16:39.083Z,23.07
2018-04-12T07:19:06.648Z,14.93
2018-04-12T07:21:34.211Z,23.53
2018-04-12T07:24:01.772Z,16.63
2018-04-12T07:26:29.331Z,13.60
2018-04-12T07:28:56.884Z,16.23
2018-04-12T07:31:24.429Z,11.13
2018-04-12T07:33:51.991Z,15.90
2018-04-12T07:36:19.516Z,14.80
2018-04-12T07:38:47.874Z,16.57
2018-04-12T07:41:15.432Z,21.73
2018-04-12T07:43:44.152Z,19.50
2018-04-12T07:46:12.451Z,12.60
2018-04-12T07:48:40.042Z,17.43
2018-04-12T07:51:07.621Z,14.20
2018-04-12T07:53:35.179Z,9.90
2018-04-12T07:56:02.716Z,6.87
2018-04-12T07:58:30.315Z,14.87
2018-04-12T08:00:58.631Z,20.47
2018-04-12T08:03:26.195Z,23.13
2018-04-12T08:05:53.763Z,6.07
2018-04-12T08:08:21.364Z,11.20
2018-04-12T08:10:49.677Z,12.90
2018-04-12T08:13:17.249Z,46.73
2018-04-12T08:15:45.657Z,9.10
2018-04-12T08:18:13.511Z,9.37
2018-04-12T08:20:41.158Z,7.80
2018-04-12T08:23:08.792Z,13.43
2018-04-12T08:25:36.335Z,9.87
2018-04-12T08:28:04.033Z,15.77
2018-04-12T08:30:31.674Z,16.07
2018-04-12T08:32:59.262Z,13.50
2018-04-12T08:35:26.822Z,11.70
2018-04-12T08:37:54.367Z,12.83
2018-04-12T08:40:22.074Z,12.30
2018-04-12T08:42:49.637Z,7.80
2018-04-12T08:45:17.181Z,9.30
2018-04-12T08:47:44.813Z,13.80
2018-04-12T08:50:12.379Z,9.13
2018-04-12T08:52:39.914Z,12.60
2018-04-12T08:55:08.273Z,14.63
2018-04-12T08:57:35.845Z,18.13
2018-04-12T09:00:03.442Z,7.70
2018-04-12T09:02:31.008Z,11.30
2018-04-12T09:04:58.599Z,7.17
2018-04-12T09:07:26.200Z,11.70
2018-04-12T09:09:53.861Z,10.70
2018-04-12T09:12:21.642Z,20.00
2018-04-12T09:14:49.408Z,18.60
2018-04-12T09:17:17.053Z,14.27
2018-04-12T09:19:44.737Z,18.53
2018-04-12T09:22:12.316Z,8.40
2018-04-12T09:24:39.895Z,12.37
2018-04-12T09:27:07.468Z,13.03
2018-04-12T09:29:35.035Z,16.17
2018-04-12T09:32:03.351Z,6.23
2018-04-12T09:34:32.072Z,15.93
2018-04-12T09:36:59.706Z,16.90
2018-04-12T09:39:27.307Z,10.10
2018-04-12T09:41:54.866Z,16.63
2018-04-12T09:44:22.463Z,8.40
2018-04-12T09:46:50.019Z,13.40
2018-04-12T09:49:17.676Z,18.07
2018-04-12T09:51:45.208Z,13.70
2018-04-12T09:54:12.761Z,14.10
2018-04-12T09:56:40.410Z,14.03
2018-04-12T09:59:08.909Z,11.67
2018-04-12T10:01:42.187Z,22.73
2018-04-12T10:04:15.301Z,26.37
2018-04-12T10:06:43.655Z,17.90
2018-04-12T10:09:14.616Z,11.80
2018-04-12T10:11:43.017Z,9.57
2018-04-12T10:14:10.591Z,16.73
2018-04-12T10:16:38.181Z,10.07
2018-04-12T10:19:05.740Z,19.27
2018-04-12T10:21:33.264Z,11.70
2018-04-12T10:24:00.867Z,8.30
2018-04-12T10:26:28.410Z,18.50
2018-04-12T10:28:56.153Z,12.07
2018-04-12T10:31:23.763Z,10.13
2018-04-12T10:33:52.592Z,14.07
2018-04-12T10:36:20.160Z,9.60
2018-04-12T10:38:47.857Z,11.03
2018-04-12T10:41:15.454Z,10.50
2018-04-12T10:43:43.145Z,12.23
2018-04-12T10:46:10.732Z,10.40
2018-04-12T10:48:38.355Z,15.30
2018-04-12T10:51:05.966Z,14.93
2018-04-12T10:53:33.514Z,10.67
2018-04-12T10:56:01.074Z,23.40
2018-04-12T10:58:28.630Z,12.23
2018-04-12T11:00:56.202Z,6.60
2018-04-12T11:03:23.845Z,16.20
2018-04-12T11:05:51.403Z,11.43
2018-04-12T11:08:18.964Z,11.83
2018-04-12T11:10:46.523Z,10.00
2018-04-12T11:13:14.060Z,9.43
2018-04-12T11:15:41.646Z,13.43
2018-04-12T11:18:09.362Z,12.43
2018-04-12T11:20:36.926Z,20.43
2018-04-12T11:23:05.246Z,17.37
2018-04-12T11:25:32.830Z,11.07
2018-04-12T11:28:00.393Z,10.97
2018-04-12T11:30:27.997Z,14.80
2018-04-12T11:32:55.547Z,9.93
2018-04-12T11:35:23.142Z,11.03
2018-04-12T11:37:50.664Z,10.90
2018-04-12T11:40:18.247Z,20.20
2018-04-12T11:42:45.777Z,7.53
2018-04-12T11:45:13.363Z,13.07
2018-04-12T11:47:41.016Z,9.47
2018-04-12T11:50:09.277Z,26.17
2018-04-12T11:52:37.783Z,10.23
2018-04-12T11:55:05.350Z,8.37
2018-04-12T11:57:32.885Z,15.33
2018-04-12T12:00:01.464Z,23.27
2018-04-12T12:02:29.016Z,8.97
2018-04-12T12:04:57.367Z,18.73
2018-04-12T12:07:24.919Z,19.93
2018-04-12T12:09:52.533Z,17.77
2018-04-12T12:12:20.081Z,10.17
2018-04-12T12:14:47.789Z,9.30
2018-04-12T12:17:15.449Z,6.90
2018-04-12T12:19:43.124Z,8.70
2018-04-12T12:22:10.678Z,9.30
2018-04-12T12:24:38.275Z,21.67
2018-04-12T12:27:05.913Z,12.90
2018-04-12T12:29:33.504Z,8.83
2018-04-12T12:32:01.967Z,20.10
2018-04-12T12:34:30.334Z,24.03
2018-04-12T12:37:09.801Z,12.07
2018-04-12T12:39:43.291Z,21.53
2018-04-12T12:42:10.828Z,13.03
2018-04-12T12:44:38.409Z,16.47
2018-04-12T12:47:06.004Z,12.90
2018-04-12T12:49:33.662Z,15.53
2018-04-12T12:52:01.274Z,14.07
2018-04-12T12:54:28.864Z,13.00
2018-04-12T12:56:56.449Z,10.53
2018-04-12T12:59:24.036Z,7.83
2018-04-12T13:01:51.591Z,15.47
2018-04-12T13:04:19.158Z,13.60
2018-04-12T13:06:46.707Z,14.57
2018-04-12T13:09:14.277Z,10.63
2018-04-12T13:11:47.783Z,17.77
2018-04-12T13:14:15.355Z,15.70
2018-04-12T13:16:48.791Z,12.20
2018-04-12T13:19:16.618Z,15.03
2018-04-12T13:21:44.244Z,15.47
2018-04-12T13:24:17.432Z,13.10
2018-04-12T13:26:44.964Z,10.20
2018-04-12T13:29:14.618Z,13.23
2018-04-12T13:31:47.822Z,7.90
2018-04-12T13:34:22.108Z,11.73
2018-04-12T13:36:55.628Z,10.57
2018-04-12T13:39:34.824Z,9.80
2018-04-12T13:42:08.959Z,17.20
2018-04-12T13:44:37.875Z,14.40
2018-04-12T13:47:05.461Z,6.50
2018-04-12T13:49:38.784Z,15.80
2018-04-12T13:52:11.930Z,11.80
2018-04-12T13:54:39.586Z,14.20
2018-04-12T13:57:07.344Z,9.63
2018-04-12T13:59:34.884Z,26.93
2018-04-12T14:02:02.460Z,29.57
2018-04-12T14:04:30.058Z,12.37
2018-04-12T14:07:01.492Z,10.87
2018-04-12T14:09:29.803Z,9.00
2018-04-12T14:11:57.378Z,22.03
2018-04-12T14:14:24.918Z,20.00
2018-04-12T14:16:52.494Z,12.87
2018-04-12T14:19:25.824Z,9.53
2018-04-12T14:21:59.328Z,11.30
2018-04-12T14:24:26.886Z,15.57
2018-04-12T14:26:54.487Z,12.13
2018-04-12T14:29:22.057Z,10.70
2018-04-12T14:31:49.819Z,21.07
2018-04-12T14:34:17.377Z,8.83
2018-04-12T14:36:44.937Z,9.37
2018-04-12T14:39:12.551Z,25.50
2018-04-12T14:41:40.113Z,9.20
2018-04-12T14:44:07.942Z,12.33
2018-04-12T14:46:41.498Z,15.63
2018-04-12T14:49:15.029Z,16.30
2018-04-12T14:51:48.549Z,18.40
2018-04-12T14:54:21.944Z,20.93
2018-04-12T14:56:49.600Z,19.90
2018-04-12T14:59:17.135Z,20.03
2018-04-12T15:01:46.024Z,28.40
2018-04-12T15:04:15.601Z,13.73
2018-04-12T15:06:43.203Z,13.23
2018-04-12T15:09:10.743Z,22.37
2018-04-12T15:11:44.003Z,12.20
2018-04-12T15:14:11.525Z,17.13
2018-04-12T15:16:39.441Z,9.90
2018-04-12T15:19:12.622Z,17.17
2018-04-12T15:21:40.247Z,9.27
2018-04-12T15:24:07.790Z,20.37
2018-04-12T15:26:35.379Z,10.40
2018-04-12T15:29:02.920Z,14.63
2018-04-12T15:31:30.491Z,11.23
2018-04-12T15:34:04.103Z,14.13
2018-04-12T15:36:31.720Z,14.40
2018-04-12T15:38:59.386Z,19.67
2018-04-12T15:41:32.936Z,13.03
2018-04-12T15:44:06.849Z,15.93
2018-04-12T15:46:36.797Z,14.13
2018-04-12T15:49:04.418Z,9.57
2018-04-12T15:51:32.075Z,17.40
2018-04-12T15:53:59.622Z,15.63
2018-04-12T15:56:32.978Z,17.40
2018-04-12T15:59:00.542Z,13.37
2018-04-12T16:01:40.896Z,7.73
2018-04-12T16:04:15.121Z,22.83
2018-04-12T16:06:43.469Z,13.77
2018-04-12T16:09:16.860Z,11.80
2018-04-12T16:11:44.515Z,11.23
2018-04-12T16:14:12.285Z,16.23
2018-04-12T16:16:46.435Z,11.43
2018-04-12T16:19:14.044Z,5.83
2018-04-12T16:21:41.663Z,18.10
2018-04-12T16:24:09.251Z,9.00
2018-04-12T16:26:39.704Z,12.80
2018-04-12T16:29:07.349Z,19.23
2018-04-12T16:31:34.992Z,14.50
2018-04-12T16:34:08.740Z,17.70
2018-04-12T16:36:43.266Z,13.70
2018-04-12T16:39:11.168Z,15.43
2018-04-12T16:41:44.653Z,17.20
2018-04-12T16:44:20.196Z,15.93
2018-04-12T16:46:47.949Z,12.20
2018-04-12T16:49:15.517Z,11.27
2018-04-12T16:51:44.406Z,14.13
2018-04-12T16:54:23.744Z,14.50
2018-04-12T16:56:57.299Z,17.40
2018-04-12T16:59:24.865Z,13.27
2018-04-12T17:01:52.443Z,28.67
2018-04-12T17:04:19.988Z,11.10
2018-04-12T17:06:48.875Z,17.80
2018-04-12T17:09:16.424Z,14.63
2018-04-12T17:11:49.873Z,20.90
2018-04-12T17:14:23.169Z,15.77
2018-04-12T17:16:58.608Z,17.10
2018-04-12T17:19:27.017Z,11.73
2018-04-12T17:22:00.266Z,17.37
2018-04-12T17:24:28.730Z,11.10
2018-04-12T17:27:01.980Z,19.13
2018-04-12T17:29:32.634Z,21.03
2018-04-12T17:32:05.751Z,12.87
2018-04-12T17:34:35.457Z,18.43
2018-04-12T17:37:03.145Z,14.33
2018-04-12T17:39:32.230Z,12.73
2018-04-12T17:42:00.260Z,13.30
2018-04-12T17:44:39.919Z,17.07
2018-04-12T17:47:13.578Z,19.97
2018-04-12T17:49:46.868Z,16.60
2018-04-12T17:52:14.572Z,21.63
2018-04-12T17:54:42.978Z,17.97
2018-04-12T17:57:10.734Z,12.97
2018-04-12T17:59:45.330Z,14.77
2018-04-12T18:02:13.805Z,19.27
2018-04-12T18:04:47.329Z,19.70
2018-04-12T18:07:20.429Z,14.13
2018-04-12T18:09:53.924Z,15.33
2018-04-12T18:12:21.469Z,35.07
2018-04-12T18:14:57.388Z,30.20
2018-04-12T18:17:30.707Z,16.67
2018-04-12T18:20:04.395Z,22.67
2018-04-12T18:22:32.024Z,13.13
2018-04-12T18:24:59.643Z,13.47
2018-04-12T18:27:27.311Z,26.73
2018-04-12T18:30:06.778Z,21.73
2018-04-12T18:32:40.209Z,12.90
2018-04-12T18:35:13.582Z,29.23
2018-04-12T18:37:47.142Z,24.20
2018-04-12T18:40:14.729Z,20.63
2018-04-12T18:42:42.314Z,21.87
2018-04-12T18:45:09.988Z,31.53
2018-04-12T18:47:37.572Z,15.07
2018-04-12T18:50:10.743Z,25.47
2018-04-12T18:52:38.324Z,22.10
2018-04-12T18:55:05.918Z,27.37
2018-04-12T18:57:40.877Z,22.03
2018-04-12T19:00:09.176Z,27.73
2018-04-12T19:02:36.769Z,19.93
2018-04-12T19:05:10.223Z,35.73
2018-04-12T19:07:37.866Z,23.90
2018-04-12T19:10:06.367Z,27.57
2018-04-12T19:12:33.910Z,24.57
2018-04-12T19:15:07.139Z,24.03
2018-04-12T19:17:40.593Z,25.37
2018-04-12T19:20:09.015Z,25.87
2018-04-12T19:22:37.933Z,27.60
2018-04-12T19:25:05.702Z,31.00
2018-04-12T19:27:39.466Z,19.30
2018-04-12T19:30:07.809Z,29.53
2018-04-12T19:32:36.142Z,30.03
2018-04-12T19:35:03.748Z,32.03
2018-04-12T19:37:31.501Z,27.87
2018-04-12T19:40:11.430Z,30.10
2018-04-12T19:42:44.716Z,33.60
2018-04-12T19:45:18.067Z,35.90
2018-04-12T19:47:46.411Z,32.97
2018-04-12T19:50:19.725Z,37.17
2018-04-12T19:52:47.307Z,29.53
2018-04-12T19:55:20.728Z,45.40
2018-04-12T19:57:48.468Z,46.00
2018-04-12T20:00:27.677Z,43.50
2018-04-12T20:02:55.255Z,42.50
2018-04-12T20:05:23.718Z,28.17
2018-04-12T20:07:52.277Z,24.50
2018-04-12T20:10:19.834Z,32.70
2018-04-12T20:12:47.419Z,29.87
2018-04-12T20:15:21.381Z,30.90
2018-04-12T20:17:48.985Z,37.23
2018-04-12T20:20:22.311Z,32.33
2018-04-12T20:22:55.850Z,26.13
2018-04-12T20:25:29.314Z,36.70
2018-04-12T20:28:02.521Z,37.27
2018-04-12T20:30:30.036Z,30.13
2018-04-12T20:32:58.381Z,24.57
2018-04-12T20:35:25.922Z,35.80
2018-04-12T20:37:53.500Z,15.97
2018-04-12T20:40:21.059Z,27.50
2018-04-12T20:42:55.701Z,26.70
2018-04-12T20:45:29.045Z,30.43
2018-04-12T20:48:02.519Z,34.57
2018-04-12T20:50:30.851Z,31.93
2018-04-12T20:52:58.440Z,22.43
2018-04-12T20:55:25.999Z,33.57
2018-04-12T20:57:53.805Z,55.23
2018-04-12T21:00:34.226Z,29.33
2018-04-12T21:03:07.715Z,22.70
2018-04-12T21:05:35.316Z,27.03
2018-04-12T21:08:08.763Z,28.33
2018-04-12T21:10:36.251Z,26.40
2018-04-12T21:13:10.293Z,20.73
2018-04-12T21:15:37.831Z,27.67
2018-04-12T21:18:06.751Z,28.13
2018-04-12T21:20:34.280Z,35.43
2018-04-12T21:23:02.602Z,35.30
2018-04-12T21:25:30.147Z,33.03
2018-04-12T21:27:59.108Z,30.03
2018-04-12T21:30:27.417Z,38.10
2018-04-12T21:33:06.558Z,25.90
2018-04-12T21:35:34.116Z,37.90
2018-04-12T21:38:01.658Z,28.37
2018-04-12T21:40:36.427Z,33.60
2018-04-12T21:43:09.581Z,89.93
2018-04-12T21:45:42.986Z,25.40
2018-04-12T21:48:10.597Z,25.60
2018-04-12T21:50:38.135Z,26.07
2018-04-12T21:53:05.717Z,24.53
2018-04-12T21:55:34.795Z,21.70
2018-04-12T21:58:02.405Z,42.53
2018-04-12T22:00:30.133Z,32.60
2018-04-12T22:02:57.669Z,35.53
2018-04-12T22:05:25.255Z,25.40
2018-04-12T22:07:53.118Z,34.13
2018-04-12T22:10:28.887Z,31.10
2018-04-12T22:12:57.478Z,32.20
2018-04-12T22:15:26.416Z,26.73
2018-04-12T22:18:05.513Z,30.53
2018-04-12T22:20:33.255Z,19.07
2018-04-12T22:23:01.573Z,30.37
2018-04-12T22:25:34.849Z,24.73
2018-04-12T22:28:02.428Z,35.97
2018-04-12T22:30:29.969Z,18.60
2018-04-12T22:32:57.676Z,27.13
2018-04-12T22:35:25.231Z,30.93
2018-04-12T22:37:58.452Z,27.37
2018-04-12T22:40:26.187Z,27.93
2018-04-12T22:43:05.341Z,25.23
2018-04-12T22:45:33.166Z,19.07
2018-04-12T22:48:06.671Z,30.93
2018-04-12T22:50:34.250Z,21.20
2018-04-12T22:53:07.307Z,29.27
2018-04-12T22:55:40.423Z,28.27
2018-04-12T22:58:07.982Z,22.97
2018-04-12T23:00:36.968Z,25.40
2018-04-12T23:03:10.178Z,29.43
2018-04-12T23:05:37.839Z,32.63
2018-04-12T23:08:05.589Z,26.93
2018-04-12T23:10:33.131Z,24.93
2018-04-12T23:13:07.544Z,33.53
2018-04-12T23:15:35.089Z,21.83
2018-04-12T23:18:02.663Z,24.30
2018-04-12T23:20:30.224Z,17.97
2018-04-12T23:22:58.015Z,38.83
2018-04-12T23:25:25.592Z,21.63
2018-04-12T23:28:05.212Z,33.93
2018-04-12T23:30:32.755Z,36.17
2018-04-12T23:33:00.292Z,15.87
2018-04-12T23:35:29.215Z,29.27
2018-04-12T23:38:02.684Z,25.90
2018-04-12T23:40:35.992Z,29.07
2018-04-12T23:43:03.546Z,59.67
2018-04-12T23:45:37.283Z,28.57
2018-04-12T23:48:04.847Z,27.27
2018-04-12T23:50:32.388Z,24.03
2018-04-12T23:52:59.927Z,22.67
2018-04-12T23:55:33.154Z,21.53
2018-04-12T23:58:00.808Z,31.17
